KADC

Wadena Municipal Airport

Wadena, Minnesota, USA
METAR KADC 131035Z AUTO 17006KT 3SM BR OVC004 M06/M07 A2984 RMK AO2
Observed Flight Rules
Dec-13 @ 10:35 UTC (20 minutes ago) Instrument Flight Rules
Wind Visibility Clouds Conditions
170° at 6 knots 3 miles
  • Overcast at 400' AGL
  • Mist
Temperatures Readings
Current -6°C / 21°F
Dewpoint -7°C / 19°F
Humidity 93%
Altimeter 29.84" Hg
Pressure 1010 hPa
Elevation 418
METAR KADC 131035Z AUTO 17006KT 3SM BR OVC004 M06/M07 A2984 RMK AO2
Observed Flight Rules
Dec-13 @ 10:35 UTC
(20 minutes ago)
LIFR
Wind Visibility
170° at 6 knots 3 miles
Clouds
  • Overcast at 400' AGL
Conditions
  • Mist
Temperature Dewpoint
-6°C / 21°F -7°C / 19°F
Humidity Altimeter Pressure
93% 29.84" Hg 1010 hPa